sensor_id;sensor_type;location;lat;lon;timestamp;P1;durP1;ratioP1;P2;durP2;ratioP2
45392;SDS011;31129;44.810;10.334;2022-10-15T00:00:28;45.35;;;26.17;;
45392;SDS011;31129;44.810;10.334;2022-10-15T00:02:54;39.75;;;26.15;;
45392;SDS011;31129;44.810;10.334;2022-10-15T00:05:20;49.65;;;26.13;;
45392;SDS011;31129;44.810;10.334;2022-10-15T00:07:46;48.10;;;27.17;;
45392;SDS011;31129;44.810;10.334;2022-10-15T00:10:11;42.95;;;25.92;;
45392;SDS011;31129;44.810;10.334;2022-10-15T00:12:38;46.70;;;25.60;;
45392;SDS011;31129;44.810;10.334;2022-10-15T00:15:04;41.95;;;25.63;;
45392;SDS011;31129;44.810;10.334;2022-10-15T00:17:30;42.42;;;26.10;;
45392;SDS011;31129;44.810;10.334;2022-10-15T00:19:56;42.17;;;24.20;;
45392;SDS011;31129;44.810;10.334;2022-10-15T00:22:22;39.88;;;24.77;;
45392;SDS011;31129;44.810;10.334;2022-10-15T00:24:47;44.78;;;25.13;;
45392;SDS011;31129;44.810;10.334;2022-10-15T00:27:13;42.28;;;25.73;;
45392;SDS011;31129;44.810;10.334;2022-10-15T00:29:39;37.53;;;25.48;;
45392;SDS011;31129;44.810;10.334;2022-10-15T00:32:05;42.30;;;25.85;;
45392;SDS011;31129;44.810;10.334;2022-10-15T00:34:30;41.80;;;25.42;;
45392;SDS011;31129;44.810;10.334;2022-10-15T00:36:57;42.15;;;25.77;;
45392;SDS011;31129;44.810;10.334;2022-10-15T00:39:22;41.13;;;24.85;;
45392;SDS011;31129;44.810;10.334;2022-10-15T00:41:48;40.53;;;25.17;;
45392;SDS011;31129;44.810;10.334;2022-10-15T00:46:45;39.08;;;24.60;;
45392;SDS011;31129;44.810;10.334;2022-10-15T00:49:36;35.63;;;24.30;;
45392;SDS011;31129;44.810;10.334;2022-10-15T00:52:26;40.10;;;23.27;;
45392;SDS011;31129;44.810;10.334;2022-10-15T00:55:17;35.97;;;24.15;;
45392;SDS011;31129;44.810;10.334;2022-10-15T00:57:59;38.20;;;23.45;;
45392;SDS011;31129;44.810;10.334;2022-10-15T01:00:31;38.60;;;22.67;;
45392;SDS011;31129;44.810;10.334;2022-10-15T01:02:58;34.63;;;22.00;;
45392;SDS011;31129;44.810;10.334;2022-10-15T01:05:24;34.28;;;21.67;;
45392;SDS011;31129;44.810;10.334;2022-10-15T01:07:49;39.97;;;22.25;;
45392;SDS011;31129;44.810;10.334;2022-10-15T01:10:15;39.47;;;23.13;;
45392;SDS011;31129;44.810;10.334;2022-10-15T01:15:47;35.20;;;22.98;;
45392;SDS011;31129;44.810;10.334;2022-10-15T01:18:15;36.67;;;22.08;;
45392;SDS011;31129;44.810;10.334;2022-10-15T01:21:02;33.33;;;22.27;;
45392;SDS011;31129;44.810;10.334;2022-10-15T01:34:49;34.17;;;21.00;;
45392;SDS011;31129;44.810;10.334;2022-10-15T01:40:06;38.17;;;21.95;;
45392;SDS011;31129;44.810;10.334;2022-10-15T01:43:12;32.28;;;21.27;;
45392;SDS011;31129;44.810;10.334;2022-10-15T01:45:46;37.15;;;20.05;;
45392;SDS011;31129;44.810;10.334;2022-10-15T01:48:40;27.85;;;19.45;;
45392;SDS011;31129;44.810;10.334;2022-10-15T01:51:07;33.05;;;21.30;;
45392;SDS011;31129;44.810;10.334;2022-10-15T01:53:35;31.77;;;20.20;;
45392;SDS011;31129;44.810;10.334;2022-10-15T01:56:07;30.70;;;20.17;;
45392;SDS011;31129;44.810;10.334;2022-10-15T01:58:39;33.33;;;21.25;;
45392;SDS011;31129;44.810;10.334;2022-10-15T02:01:08;34.00;;;21.17;;
45392;SDS011;31129;44.810;10.334;2022-10-15T02:03:47;34.83;;;22.67;;
45392;SDS011;31129;44.810;10.334;2022-10-15T02:06:17;41.90;;;22.05;;
45392;SDS011;31129;44.810;10.334;2022-10-15T02:09:00;40.53;;;21.95;;
45392;SDS011;31129;44.810;10.334;2022-10-15T02:11:26;31.33;;;21.08;;
45392;SDS011;31129;44.810;10.334;2022-10-15T02:17:09;37.25;;;22.38;;
45392;SDS011;31129;44.810;10.334;2022-10-15T02:22:02;36.13;;;22.98;;
45392;SDS011;31129;44.810;10.334;2022-10-15T02:24:38;37.42;;;23.33;;
45392;SDS011;31129;44.810;10.334;2022-10-15T02:27:12;37.55;;;22.17;;
45392;SDS011;31129;44.810;10.334;2022-10-15T02:29:40;39.22;;;22.63;;
45392;SDS011;31129;44.810;10.334;2022-10-15T02:32:08;33.85;;;22.48;;
45392;SDS011;31129;44.810;10.334;2022-10-15T02:34:36;35.03;;;20.77;;
45392;SDS011;31129;44.810;10.334;2022-10-15T02:37:03;34.28;;;19.83;;
45392;SDS011;31129;44.810;10.334;2022-10-15T02:41:57;35.50;;;19.95;;
45392;SDS011;31129;44.810;10.334;2022-10-15T02:44:24;30.83;;;18.98;;
45392;SDS011;31129;44.810;10.334;2022-10-15T02:46:49;28.70;;;17.63;;
45392;SDS011;31129;44.810;10.334;2022-10-15T02:49:17;27.80;;;17.88;;
45392;SDS011;31129;44.810;10.334;2022-10-15T02:51:42;33.88;;;16.83;;
45392;SDS011;31129;44.810;10.334;2022-10-15T02:54:08;27.23;;;17.13;;
45392;SDS011;31129;44.810;10.334;2022-10-15T02:56:33;25.40;;;17.08;;
45392;SDS011;31129;44.810;10.334;2022-10-15T02:59:00;26.00;;;16.55;;
45392;SDS011;31129;44.810;10.334;2022-10-15T03:01:27;28.52;;;16.63;;
45392;SDS011;31129;44.810;10.334;2022-10-15T03:03:52;23.15;;;16.48;;
45392;SDS011;31129;44.810;10.334;2022-10-15T03:06:18;24.27;;;16.02;;
45392;SDS011;31129;44.810;10.334;2022-10-15T03:08:45;26.05;;;17.20;;
45392;SDS011;31129;44.810;10.334;2022-10-15T03:11:11;27.63;;;16.80;;
45392;SDS011;31129;44.810;10.334;2022-10-15T03:13:37;28.08;;;17.92;;
45392;SDS011;31129;44.810;10.334;2022-10-15T03:16:04;25.95;;;17.05;;
45392;SDS011;31129;44.810;10.334;2022-10-15T03:18:31;27.00;;;17.38;;
45392;SDS011;31129;44.810;10.334;2022-10-15T03:20:57;30.67;;;18.00;;
45392;SDS011;31129;44.810;10.334;2022-10-15T03:23:23;30.58;;;17.75;;
45392;SDS011;31129;44.810;10.334;2022-10-15T03:25:57;34.53;;;18.20;;
45392;SDS011;31129;44.810;10.334;2022-10-15T03:28:22;31.95;;;17.13;;
45392;SDS011;31129;44.810;10.334;2022-10-15T03:30:49;25.63;;;17.85;;
45392;SDS011;31129;44.810;10.334;2022-10-15T03:33:15;31.23;;;18.70;;
45392;SDS011;31129;44.810;10.334;2022-10-15T03:35:40;28.13;;;17.95;;
45392;SDS011;31129;44.810;10.334;2022-10-15T03:38:07;32.53;;;19.15;;
45392;SDS011;31129;44.810;10.334;2022-10-15T03:40:33;24.95;;;17.95;;
45392;SDS011;31129;44.810;10.334;2022-10-15T03:43:13;27.58;;;18.50;;
45392;SDS011;31129;44.810;10.334;2022-10-15T03:45:39;30.45;;;17.85;;
45392;SDS011;31129;44.810;10.334;2022-10-15T03:48:18;32.50;;;19.17;;
45392;SDS011;31129;44.810;10.334;2022-10-15T03:50:45;28.35;;;19.23;;
45392;SDS011;31129;44.810;10.334;2022-10-15T03:53:11;35.55;;;19.63;;
45392;SDS011;31129;44.810;10.334;2022-10-15T03:55:37;30.45;;;18.33;;
45392;SDS011;31129;44.810;10.334;2022-10-15T03:58:03;30.95;;;18.35;;
45392;SDS011;31129;44.810;10.334;2022-10-15T04:00:28;35.10;;;19.20;;
45392;SDS011;31129;44.810;10.334;2022-10-15T04:02:57;31.85;;;17.67;;
45392;SDS011;31129;44.810;10.334;2022-10-15T04:05:25;29.08;;;17.95;;
45392;SDS011;31129;44.810;10.334;2022-10-15T04:07:56;30.73;;;17.70;;
45392;SDS011;31129;44.810;10.334;2022-10-15T04:10:23;32.03;;;16.80;;
45392;SDS011;31129;44.810;10.334;2022-10-15T04:12:49;24.15;;;17.02;;
45392;SDS011;31129;44.810;10.334;2022-10-15T04:15:16;26.40;;;17.88;;
45392;SDS011;31129;44.810;10.334;2022-10-15T04:17:52;22.92;;;16.30;;
45392;SDS011;31129;44.810;10.334;2022-10-15T04:20:19;31.90;;;16.45;;
45392;SDS011;31129;44.810;10.334;2022-10-15T04:22:44;28.52;;;15.35;;
45392;SDS011;31129;44.810;10.334;2022-10-15T04:25:11;24.73;;;15.57;;
45392;SDS011;31129;44.810;10.334;2022-10-15T04:27:36;26.23;;;15.95;;
45392;SDS011;31129;44.810;10.334;2022-10-15T04:30:15;28.58;;;15.10;;
45392;SDS011;31129;44.810;10.334;2022-10-15T04:32:45;28.85;;;14.43;;
45392;SDS011;31129;44.810;10.334;2022-10-15T04:35:11;26.08;;;14.95;;
45392;SDS011;31129;44.810;10.334;2022-10-15T04:37:48;26.77;;;14.85;;
45392;SDS011;31129;44.810;10.334;2022-10-15T04:40:14;22.23;;;14.48;;
45392;SDS011;31129;44.810;10.334;2022-10-15T04:42:40;28.23;;;15.25;;
45392;SDS011;31129;44.810;10.334;2022-10-15T04:45:06;25.60;;;15.02;;
45392;SDS011;31129;44.810;10.334;2022-10-15T04:47:32;31.85;;;14.10;;
45392;SDS011;31129;44.810;10.334;2022-10-15T04:50:17;29.50;;;14.40;;
45392;SDS011;31129;44.810;10.334;2022-10-15T04:53:01;24.30;;;14.95;;
45392;SDS011;31129;44.810;10.334;2022-10-15T04:55:30;29.90;;;14.18;;
45392;SDS011;31129;44.810;10.334;2022-10-15T04:57:58;29.42;;;14.73;;
45392;SDS011;31129;44.810;10.334;2022-10-15T05:00:28;26.38;;;13.23;;
45392;SDS011;31129;44.810;10.334;2022-10-15T05:03:21;23.75;;;13.82;;
45392;SDS011;31129;44.810;10.334;2022-10-15T05:05:52;23.40;;;13.93;;
45392;SDS011;31129;44.810;10.334;2022-10-15T05:08:18;28.63;;;13.43;;
45392;SDS011;31129;44.810;10.334;2022-10-15T05:11:14;22.77;;;13.77;;
45392;SDS011;31129;44.810;10.334;2022-10-15T05:13:41;24.38;;;14.40;;
45392;SDS011;31129;44.810;10.334;2022-10-15T05:16:14;23.60;;;13.50;;
45392;SDS011;31129;44.810;10.334;2022-10-15T05:18:43;25.73;;;14.15;;
45392;SDS011;31129;44.810;10.334;2022-10-15T05:21:11;31.77;;;13.77;;
45392;SDS011;31129;44.810;10.334;2022-10-15T05:23:39;26.45;;;13.75;;
45392;SDS011;31129;44.810;10.334;2022-10-15T05:26:14;20.75;;;14.00;;
45392;SDS011;31129;44.810;10.334;2022-10-15T05:28:41;28.83;;;14.32;;
45392;SDS011;31129;44.810;10.334;2022-10-15T05:31:09;24.30;;;14.20;;
45392;SDS011;31129;44.810;10.334;2022-10-15T05:36:13;26.63;;;12.45;;
45392;SDS011;31129;44.810;10.334;2022-10-15T05:38:45;19.63;;;12.10;;
45392;SDS011;31129;44.810;10.334;2022-10-15T05:41:12;20.90;;;11.60;;
45392;SDS011;31129;44.810;10.334;2022-10-15T05:43:38;21.60;;;12.50;;
45392;SDS011;31129;44.810;10.334;2022-10-15T05:46:08;24.05;;;12.75;;
45392;SDS011;31129;44.810;10.334;2022-10-15T05:48:33;24.67;;;11.75;;
45392;SDS011;31129;44.810;10.334;2022-10-15T05:51:02;21.85;;;12.70;;
45392;SDS011;31129;44.810;10.334;2022-10-15T05:53:29;26.05;;;12.23;;
45392;SDS011;31129;44.810;10.334;2022-10-15T05:56:00;24.85;;;13.07;;
45392;SDS011;31129;44.810;10.334;2022-10-15T05:58:31;19.33;;;12.15;;
45392;SDS011;31129;44.810;10.334;2022-10-15T06:00:58;21.13;;;11.55;;
45392;SDS011;31129;44.810;10.334;2022-10-15T06:03:25;20.00;;;13.52;;
45392;SDS011;31129;44.810;10.334;2022-10-15T06:05:52;17.67;;;11.95;;
45392;SDS011;31129;44.810;10.334;2022-10-15T06:08:18;28.50;;;12.02;;
45392;SDS011;31129;44.810;10.334;2022-10-15T06:10:44;18.13;;;12.23;;
45392;SDS011;31129;44.810;10.334;2022-10-15T06:13:10;19.67;;;12.40;;
45392;SDS011;31129;44.810;10.334;2022-10-15T06:15:39;22.50;;;12.30;;
45392;SDS011;31129;44.810;10.334;2022-10-15T06:18:08;21.90;;;11.05;;
45392;SDS011;31129;44.810;10.334;2022-10-15T06:20:34;25.55;;;11.90;;
45392;SDS011;31129;44.810;10.334;2022-10-15T06:23:01;21.33;;;11.90;;
45392;SDS011;31129;44.810;10.334;2022-10-15T06:25:29;23.50;;;12.02;;
45392;SDS011;31129;44.810;10.334;2022-10-15T06:27:55;17.70;;;10.85;;
45392;SDS011;31129;44.810;10.334;2022-10-15T06:30:27;21.48;;;11.85;;
45392;SDS011;31129;44.810;10.334;2022-10-15T06:32:53;18.52;;;10.75;;
45392;SDS011;31129;44.810;10.334;2022-10-15T06:35:18;18.85;;;10.88;;
45392;SDS011;31129;44.810;10.334;2022-10-15T06:37:45;18.77;;;10.25;;
45392;SDS011;31129;44.810;10.334;2022-10-15T06:40:30;29.05;;;10.13;;
45392;SDS011;31129;44.810;10.334;2022-10-15T06:43:05;18.88;;;9.73;;
45392;SDS011;31129;44.810;10.334;2022-10-15T06:45:33;16.13;;;9.88;;
45392;SDS011;31129;44.810;10.334;2022-10-15T06:48:05;21.55;;;10.30;;
45392;SDS011;31129;44.810;10.334;2022-10-15T06:50:32;18.15;;;10.35;;
45392;SDS011;31129;44.810;10.334;2022-10-15T06:52:59;21.92;;;11.00;;
45392;SDS011;31129;44.810;10.334;2022-10-15T06:55:26;18.98;;;11.00;;
45392;SDS011;31129;44.810;10.334;2022-10-15T06:57:53;21.80;;;10.65;;
45392;SDS011;31129;44.810;10.334;2022-10-15T07:00:20;17.92;;;10.75;;
45392;SDS011;31129;44.810;10.334;2022-10-15T07:02:47;16.85;;;10.88;;
45392;SDS011;31129;44.810;10.334;2022-10-15T07:05:12;23.98;;;11.85;;
45392;SDS011;31129;44.810;10.334;2022-10-15T07:07:38;20.33;;;11.77;;
45392;SDS011;31129;44.810;10.334;2022-10-15T07:10:03;21.38;;;10.40;;
45392;SDS011;31129;44.810;10.334;2022-10-15T07:12:31;19.45;;;10.80;;
45392;SDS011;31129;44.810;10.334;2022-10-15T07:14:57;21.27;;;10.90;;
45392;SDS011;31129;44.810;10.334;2022-10-15T07:17:23;20.58;;;11.27;;
45392;SDS011;31129;44.810;10.334;2022-10-15T07:19:48;26.08;;;11.75;;
45392;SDS011;31129;44.810;10.334;2022-10-15T07:22:14;17.52;;;10.05;;
45392;SDS011;31129;44.810;10.334;2022-10-15T07:24:39;21.38;;;10.65;;
45392;SDS011;31129;44.810;10.334;2022-10-15T07:27:05;15.77;;;10.10;;
45392;SDS011;31129;44.810;10.334;2022-10-15T07:29:30;26.85;;;10.82;;
45392;SDS011;31129;44.810;10.334;2022-10-15T07:31:56;20.15;;;11.52;;
45392;SDS011;31129;44.810;10.334;2022-10-15T07:34:22;18.85;;;11.45;;
45392;SDS011;31129;44.810;10.334;2022-10-15T07:36:48;23.25;;;13.82;;
45392;SDS011;31129;44.810;10.334;2022-10-15T07:39:13;23.90;;;13.23;;
45392;SDS011;31129;44.810;10.334;2022-10-15T07:41:39;30.80;;;12.70;;
45392;SDS011;31129;44.810;10.334;2022-10-15T07:44:04;23.55;;;12.88;;
45392;SDS011;31129;44.810;10.334;2022-10-15T07:46:30;28.75;;;13.20;;
45392;SDS011;31129;44.810;10.334;2022-10-15T07:48:55;27.25;;;13.70;;
45392;SDS011;31129;44.810;10.334;2022-10-15T07:51:21;35.75;;;15.40;;
45392;SDS011;31129;44.810;10.334;2022-10-15T07:53:46;31.00;;;17.10;;
45392;SDS011;31129;44.810;10.334;2022-10-15T07:56:13;25.00;;;14.90;;
45392;SDS011;31129;44.810;10.334;2022-10-15T07:58:39;23.87;;;14.07;;
45392;SDS011;31129;44.810;10.334;2022-10-15T08:01:06;26.25;;;14.82;;
45392;SDS011;31129;44.810;10.334;2022-10-15T08:03:33;34.40;;;18.50;;
45392;SDS011;31129;44.810;10.334;2022-10-15T08:06:00;34.40;;;18.65;;
45392;SDS011;31129;44.810;10.334;2022-10-15T08:08:27;38.33;;;19.10;;
45392;SDS011;31129;44.810;10.334;2022-10-15T08:10:53;35.08;;;21.88;;
45392;SDS011;31129;44.810;10.334;2022-10-15T08:13:19;36.63;;;21.75;;
45392;SDS011;31129;44.810;10.334;2022-10-15T08:15:49;52.85;;;28.40;;
45392;SDS011;31129;44.810;10.334;2022-10-15T08:18:14;59.50;;;33.30;;
45392;SDS011;31129;44.810;10.334;2022-10-15T08:20:40;58.40;;;32.95;;
45392;SDS011;31129;44.810;10.334;2022-10-15T08:23:12;61.80;;;33.20;;
45392;SDS011;31129;44.810;10.334;2022-10-15T08:25:39;67.28;;;35.00;;
45392;SDS011;31129;44.810;10.334;2022-10-15T08:28:06;75.10;;;35.80;;
45392;SDS011;31129;44.810;10.334;2022-10-15T08:30:34;61.13;;;34.38;;
45392;SDS011;31129;44.810;10.334;2022-10-15T08:33:04;52.53;;;31.45;;
45392;SDS011;31129;44.810;10.334;2022-10-15T08:35:29;59.75;;;31.92;;
45392;SDS011;31129;44.810;10.334;2022-10-15T08:38:00;60.22;;;33.58;;
45392;SDS011;31129;44.810;10.334;2022-10-15T08:40:25;57.55;;;35.15;;
45392;SDS011;31129;44.810;10.334;2022-10-15T08:42:52;56.90;;;34.92;;
45392;SDS011;31129;44.810;10.334;2022-10-15T08:45:18;95.40;;;46.28;;
45392;SDS011;31129;44.810;10.334;2022-10-15T08:48:12;79.70;;;43.42;;
45392;SDS011;31129;44.810;10.334;2022-10-15T08:50:53;77.03;;;43.60;;
45392;SDS011;31129;44.810;10.334;2022-10-15T08:53:23;79.97;;;43.67;;
45392;SDS011;31129;44.810;10.334;2022-10-15T08:55:54;69.43;;;40.58;;
45392;SDS011;31129;44.810;10.334;2022-10-15T08:58:23;71.38;;;43.03;;
45392;SDS011;31129;44.810;10.334;2022-10-15T09:01:05;64.10;;;35.65;;
45392;SDS011;31129;44.810;10.334;2022-10-15T09:06:36;65.55;;;37.72;;
45392;SDS011;31129;44.810;10.334;2022-10-15T09:14:49;92.70;;;47.35;;
45392;SDS011;31129;44.810;10.334;2022-10-15T09:17:22;78.95;;;46.92;;
45392;SDS011;31129;44.810;10.334;2022-10-15T09:19:50;90.00;;;47.00;;
45392;SDS011;31129;44.810;10.334;2022-10-15T09:22:18;80.57;;;45.17;;
45392;SDS011;31129;44.810;10.334;2022-10-15T09:24:48;82.20;;;45.35;;
45392;SDS011;31129;44.810;10.334;2022-10-15T09:27:31;72.70;;;43.80;;
45392;SDS011;31129;44.810;10.334;2022-10-15T09:35:21;67.20;;;42.30;;
45392;SDS011;31129;44.810;10.334;2022-10-15T09:40:54;79.30;;;46.50;;
45392;SDS011;31129;44.810;10.334;2022-10-15T09:43:25;72.82;;;44.95;;
45392;SDS011;31129;44.810;10.334;2022-10-15T09:45:59;85.15;;;45.05;;
45392;SDS011;31129;44.810;10.334;2022-10-15T09:48:29;82.40;;;44.80;;
45392;SDS011;31129;44.810;10.334;2022-10-15T09:51:03;73.75;;;44.53;;
45392;SDS011;31129;44.810;10.334;2022-10-15T09:53:45;73.38;;;44.67;;
45392;SDS011;31129;44.810;10.334;2022-10-15T09:56:34;74.53;;;43.97;;
45392;SDS011;31129;44.810;10.334;2022-10-15T09:59:02;76.22;;;44.33;;
45392;SDS011;31129;44.810;10.334;2022-10-15T10:01:31;71.53;;;41.45;;
45392;SDS011;31129;44.810;10.334;2022-10-15T10:04:14;72.90;;;42.30;;
45392;SDS011;31129;44.810;10.334;2022-10-15T10:09:30;69.97;;;42.92;;
45392;SDS011;31129;44.810;10.334;2022-10-15T10:12:00;81.00;;;45.17;;
45392;SDS011;31129;44.810;10.334;2022-10-15T10:14:30;79.80;;;42.90;;
45392;SDS011;31129;44.810;10.334;2022-10-15T10:17:18;68.32;;;42.60;;
45392;SDS011;31129;44.810;10.334;2022-10-15T10:20:01;68.50;;;40.95;;
45392;SDS011;31129;44.810;10.334;2022-10-15T10:22:43;65.05;;;42.55;;
45392;SDS011;31129;44.810;10.334;2022-10-15T10:30:36;67.80;;;41.10;;
45392;SDS011;31129;44.810;10.334;2022-10-15T10:33:11;70.97;;;39.70;;
45392;SDS011;31129;44.810;10.334;2022-10-15T10:35:47;66.47;;;38.88;;
45392;SDS011;31129;44.810;10.334;2022-10-15T10:38:21;68.55;;;38.97;;
45392;SDS011;31129;44.810;10.334;2022-10-15T10:40:49;58.95;;;38.20;;
45392;SDS011;31129;44.810;10.334;2022-10-15T10:43:18;66.53;;;38.00;;
45392;SDS011;31129;44.810;10.334;2022-10-15T10:45:54;65.07;;;36.58;;
45392;SDS011;31129;44.810;10.334;2022-10-15T10:48:26;66.10;;;36.55;;
45392;SDS011;31129;44.810;10.334;2022-10-15T10:53:46;57.97;;;35.80;;
45392;SDS011;31129;44.810;10.334;2022-10-15T10:59:24;55.45;;;33.97;;
45392;SDS011;31129;44.810;10.334;2022-10-15T11:01:54;57.25;;;33.80;;
45392;SDS011;31129;44.810;10.334;2022-10-15T11:04:27;57.70;;;33.72;;
45392;SDS011;31129;44.810;10.334;2022-10-15T11:20:38;54.85;;;32.70;;
45392;SDS011;31129;44.810;10.334;2022-10-15T11:23:21;57.50;;;34.00;;
45392;SDS011;31129;44.810;10.334;2022-10-15T11:26:02;47.95;;;32.45;;
45392;SDS011;31129;44.810;10.334;2022-10-15T11:31:37;54.05;;;31.45;;
45392;SDS011;31129;44.810;10.334;2022-10-15T11:34:27;55.38;;;30.85;;
45392;SDS011;31129;44.810;10.334;2022-10-15T11:43:06;55.47;;;31.30;;
45392;SDS011;31129;44.810;10.334;2022-10-15T11:45:51;53.83;;;33.53;;
45392;SDS011;31129;44.810;10.334;2022-10-15T11:51:10;57.42;;;31.85;;
45392;SDS011;31129;44.810;10.334;2022-10-15T11:53:49;47.03;;;31.67;;
45392;SDS011;31129;44.810;10.334;2022-10-15T11:56:25;47.63;;;31.42;;
45392;SDS011;31129;44.810;10.334;2022-10-15T12:01:58;55.45;;;31.35;;
45392;SDS011;31129;44.810;10.334;2022-10-15T12:07:20;52.05;;;31.95;;
45392;SDS011;31129;44.810;10.334;2022-10-15T12:09:52;57.25;;;33.55;;
45392;SDS011;31129;44.810;10.334;2022-10-15T12:15:46;62.25;;;33.80;;
45392;SDS011;31129;44.810;10.334;2022-10-15T12:20:54;54.88;;;33.38;;
45392;SDS011;31129;44.810;10.334;2022-10-15T12:28:49;53.90;;;34.65;;
45392;SDS011;31129;44.810;10.334;2022-10-15T12:31:17;48.83;;;33.15;;
45392;SDS011;31129;44.810;10.334;2022-10-15T12:33:54;60.10;;;35.30;;
45392;SDS011;31129;44.810;10.334;2022-10-15T12:36:25;58.58;;;34.90;;
45392;SDS011;31129;44.810;10.334;2022-10-15T12:39:14;55.13;;;34.17;;
45392;SDS011;31129;44.810;10.334;2022-10-15T12:41:48;58.38;;;36.45;;
45392;SDS011;31129;44.810;10.334;2022-10-15T12:44:19;58.28;;;34.63;;
45392;SDS011;31129;44.810;10.334;2022-10-15T12:46:47;58.47;;;34.20;;
45392;SDS011;31129;44.810;10.334;2022-10-15T12:51:51;54.15;;;34.65;;
45392;SDS011;31129;44.810;10.334;2022-10-15T12:59:58;56.55;;;33.00;;
45392;SDS011;31129;44.810;10.334;2022-10-15T13:05:00;53.58;;;33.38;;
45392;SDS011;31129;44.810;10.334;2022-10-15T13:07:25;56.03;;;31.52;;
45392;SDS011;31129;44.810;10.334;2022-10-15T13:09:51;50.42;;;32.00;;
45392;SDS011;31129;44.810;10.334;2022-10-15T13:12:24;59.42;;;32.38;;
45392;SDS011;31129;44.810;10.334;2022-10-15T13:14:56;53.30;;;32.65;;
45392;SDS011;31129;44.810;10.334;2022-10-15T13:17:27;56.40;;;31.88;;
45392;SDS011;31129;44.810;10.334;2022-10-15T13:19:58;53.10;;;32.88;;
45392;SDS011;31129;44.810;10.334;2022-10-15T13:22:29;46.15;;;29.75;;
45392;SDS011;31129;44.810;10.334;2022-10-15T13:24:57;48.75;;;28.65;;
45392;SDS011;31129;44.810;10.334;2022-10-15T13:27:24;48.20;;;29.40;;
45392;SDS011;31129;44.810;10.334;2022-10-15T13:29:55;45.75;;;27.02;;
45392;SDS011;31129;44.810;10.334;2022-10-15T13:32:38;42.38;;;27.65;;
45392;SDS011;31129;44.810;10.334;2022-10-15T13:35:10;48.13;;;28.40;;
45392;SDS011;31129;44.810;10.334;2022-10-15T13:37:41;48.25;;;28.23;;
45392;SDS011;31129;44.810;10.334;2022-10-15T13:40:15;42.17;;;28.80;;
45392;SDS011;31129;44.810;10.334;2022-10-15T13:43:00;44.87;;;27.93;;
45392;SDS011;31129;44.810;10.334;2022-10-15T13:45:33;53.60;;;29.15;;
45392;SDS011;31129;44.810;10.334;2022-10-15T13:47:58;38.97;;;27.88;;
45392;SDS011;31129;44.810;10.334;2022-10-15T13:50:28;39.90;;;25.95;;
45392;SDS011;31129;44.810;10.334;2022-10-15T13:52:59;38.83;;;24.65;;
45392;SDS011;31129;44.810;10.334;2022-10-15T13:55:32;51.55;;;24.33;;
45392;SDS011;31129;44.810;10.334;2022-10-15T13:58:16;39.38;;;22.80;;
45392;SDS011;31129;44.810;10.334;2022-10-15T14:03:19;47.00;;;27.20;;
45392;SDS011;31129;44.810;10.334;2022-10-15T14:05:47;44.80;;;27.10;;
45392;SDS011;31129;44.810;10.334;2022-10-15T14:10:44;41.60;;;28.15;;
45392;SDS011;31129;44.810;10.334;2022-10-15T14:13:11;47.97;;;27.27;;
45392;SDS011;31129;44.810;10.334;2022-10-15T14:18:06;40.33;;;26.33;;
45392;SDS011;31129;44.810;10.334;2022-10-15T14:20:31;41.35;;;27.10;;
45392;SDS011;31129;44.810;10.334;2022-10-15T14:22:57;48.15;;;26.13;;
45392;SDS011;31129;44.810;10.334;2022-10-15T14:25:23;39.53;;;27.08;;
45392;SDS011;31129;44.810;10.334;2022-10-15T14:27:50;37.27;;;21.43;;
45392;SDS011;31129;44.810;10.334;2022-10-15T14:30:34;42.58;;;22.88;;
45392;SDS011;31129;44.810;10.334;2022-10-15T14:33:03;40.92;;;23.45;;
45392;SDS011;31129;44.810;10.334;2022-10-15T14:35:35;36.95;;;23.15;;
45392;SDS011;31129;44.810;10.334;2022-10-15T14:38:03;34.10;;;22.35;;
45392;SDS011;31129;44.810;10.334;2022-10-15T14:40:30;34.15;;;21.65;;
45392;SDS011;31129;44.810;10.334;2022-10-15T14:48:26;40.85;;;23.13;;
45392;SDS011;31129;44.810;10.334;2022-10-15T14:50:52;34.90;;;23.75;;
45392;SDS011;31129;44.810;10.334;2022-10-15T14:53:23;42.60;;;23.60;;
45392;SDS011;31129;44.810;10.334;2022-10-15T14:55:52;38.03;;;22.70;;
45392;SDS011;31129;44.810;10.334;2022-10-15T14:58:25;47.72;;;23.50;;
45392;SDS011;31129;44.810;10.334;2022-10-15T15:00:56;34.92;;;23.20;;
45392;SDS011;31129;44.810;10.334;2022-10-15T15:03:28;38.95;;;25.13;;
45392;SDS011;31129;44.810;10.334;2022-10-15T15:05:55;34.13;;;21.95;;
45392;SDS011;31129;44.810;10.334;2022-10-15T15:08:22;33.90;;;20.67;;
45392;SDS011;31129;44.810;10.334;2022-10-15T15:10:50;31.90;;;21.13;;
45392;SDS011;31129;44.810;10.334;2022-10-15T15:13:20;41.78;;;20.98;;
45392;SDS011;31129;44.810;10.334;2022-10-15T15:15:48;35.97;;;21.45;;
45392;SDS011;31129;44.810;10.334;2022-10-15T15:18:13;34.70;;;21.25;;
45392;SDS011;31129;44.810;10.334;2022-10-15T15:20:40;40.58;;;23.05;;
45392;SDS011;31129;44.810;10.334;2022-10-15T15:23:08;32.67;;;22.15;;
45392;SDS011;31129;44.810;10.334;2022-10-15T15:25:38;31.83;;;21.00;;
45392;SDS011;31129;44.810;10.334;2022-10-15T15:28:05;32.30;;;22.90;;
45392;SDS011;31129;44.810;10.334;2022-10-15T15:30:39;31.73;;;20.30;;
45392;SDS011;31129;44.810;10.334;2022-10-15T15:33:11;28.23;;;19.75;;
45392;SDS011;31129;44.810;10.334;2022-10-15T15:35:38;42.90;;;22.65;;
45392;SDS011;31129;44.810;10.334;2022-10-15T15:38:18;34.35;;;21.35;;
45392;SDS011;31129;44.810;10.334;2022-10-15T15:40:45;38.10;;;20.33;;
45392;SDS011;31129;44.810;10.334;2022-10-15T15:43:12;37.50;;;24.65;;
45392;SDS011;31129;44.810;10.334;2022-10-15T15:45:38;31.40;;;18.30;;
45392;SDS011;31129;44.810;10.334;2022-10-15T15:48:04;33.47;;;23.60;;
45392;SDS011;31129;44.810;10.334;2022-10-15T15:50:30;32.63;;;25.17;;
45392;SDS011;31129;44.810;10.334;2022-10-15T15:52:56;45.00;;;24.95;;
45392;SDS011;31129;44.810;10.334;2022-10-15T15:55:21;38.67;;;24.35;;
45392;SDS011;31129;44.810;10.334;2022-10-15T15:57:47;40.38;;;23.67;;
45392;SDS011;31129;44.810;10.334;2022-10-15T16:00:13;38.08;;;24.27;;
45392;SDS011;31129;44.810;10.334;2022-10-15T16:02:39;35.80;;;24.98;;
45392;SDS011;31129;44.810;10.334;2022-10-15T16:05:05;44.95;;;24.73;;
45392;SDS011;31129;44.810;10.334;2022-10-15T16:07:32;33.60;;;23.60;;
45392;SDS011;31129;44.810;10.334;2022-10-15T16:09:57;41.30;;;25.20;;
45392;SDS011;31129;44.810;10.334;2022-10-15T16:12:23;44.33;;;24.55;;
45392;SDS011;31129;44.810;10.334;2022-10-15T16:14:49;37.50;;;25.45;;
45392;SDS011;31129;44.810;10.334;2022-10-15T16:17:14;39.58;;;24.77;;
45392;SDS011;31129;44.810;10.334;2022-10-15T16:19:40;39.03;;;25.45;;
45392;SDS011;31129;44.810;10.334;2022-10-15T16:22:05;39.85;;;24.85;;
45392;SDS011;31129;44.810;10.334;2022-10-15T16:24:31;42.15;;;23.23;;
45392;SDS011;31129;44.810;10.334;2022-10-15T16:26:57;39.25;;;24.95;;
45392;SDS011;31129;44.810;10.334;2022-10-15T16:29:23;46.85;;;25.45;;
45392;SDS011;31129;44.810;10.334;2022-10-15T16:31:49;42.05;;;25.95;;